Time;durP1;ratioP1;P1;durP2;ratioP2;P2;SDS_P1;SDS_P2;PMS_P1;PMS_P2;Temp;Humidity;BMP_temperature;BMP_pressure;BME280_temperature;BME280_humidity;BME280_pressure;Samples;Min_cycle;Max_cycle;Signal;HPM_P1;HPM_P2
2021/07/11 00:01:25;;;;;;;29.00;19.85;;;20.30;93.60;;;;;;4997091;28;20208;-72
2021/07/11 00:03:52;;;;;;;32.15;20.52;;;20.30;93.60;;;;;;5011542;28;20259;-71
2021/07/11 00:06:19;;;;;;;31.00;20.70;;;20.20;94.00;;;;;;5009365;28;20601;-73
2021/07/11 00:08:45;;;;;;;29.42;19.80;;;20.20;93.60;;;;;;5016452;28;20681;-69
2021/07/11 00:11:13;;;;;;;30.75;19.60;;;20.20;93.70;;;;;;5014276;28;20200;-70
2021/07/11 00:13:40;;;;;;;31.25;20.30;;;20.20;93.70;;;;;;5014462;28;20216;-70
2021/07/11 00:16:07;;;;;;;31.85;19.83;;;20.20;93.70;;;;;;5010755;28;20246;-71
2021/07/11 00:18:34;;;;;;;30.20;19.63;;;20.20;93.80;;;;;;5013573;28;20204;-71
2021/07/11 00:21:04;;;;;;;32.45;21.52;;;20.10;93.80;;;;;;5014043;28;20725;-70
2021/07/11 00:23:30;;;;;;;29.10;19.75;;;20.10;93.80;;;;;;5013251;28;20219;-71
2021/07/11 00:25:57;;;;;;;29.95;20.20;;;20.10;93.90;;;;;;5007314;28;20283;-70
2021/07/11 00:28:25;;;;;;;31.50;20.55;;;20.10;93.90;;;;;;5008227;28;20232;-72
2021/07/11 00:30:52;;;;;;;30.25;20.08;;;20.10;94.00;;;;;;5009583;28;20284;-71
2021/07/11 00:33:19;;;;;;;31.65;19.98;;;20.10;94.10;;;;;;5013684;28;20205;-70
2021/07/11 00:35:46;;;;;;;30.60;20.05;;;20.00;94.10;;;;;;5011504;28;20205;-69
2021/07/11 00:38:12;;;;;;;31.45;20.50;;;20.00;94.10;;;;;;5014480;28;20258;-69
2021/07/11 00:40:40;;;;;;;33.72;21.05;;;20.00;94.20;;;;;;5010768;28;20209;-73
2021/07/11 00:43:07;;;;;;;32.80;20.13;;;20.00;94.20;;;;;;5009695;28;20303;-72
2021/07/11 00:45:37;;;;;;;31.90;21.40;;;20.00;94.30;;;;;;5017478;28;20209;-72
2021/07/11 00:48:07;;;;;;;35.20;22.02;;;20.00;94.40;;;;;;5015345;28;20192;-71
2021/07/11 00:50:34;;;;;;;32.63;21.40;;;20.00;94.40;;;;;;4993475;28;20200;-71
2021/07/11 00:53:11;;;;;;;32.97;21.55;;;20.00;94.60;;;;;;4993105;28;20207;-71
2021/07/11 00:55:40;;;;;;;33.95;21.95;;;19.90;95.00;;;;;;4991849;28;20319;-72
2021/07/11 00:58:09;;;;;;;31.67;21.30;;;19.90;94.80;;;;;;4996551;28;20219;-72
2021/07/11 01:00:48;;;;;;;34.38;21.35;;;19.90;95.00;;;;;;4993557;28;20258;-71
2021/07/11 01:03:24;;;;;;;29.92;20.40;;;19.90;95.10;;;;;;5013414;28;20612;-72
2021/07/11 01:05:54;;;;;;;29.08;20.25;;;19.90;95.20;;;;;;5002257;28;20208;-71
2021/07/11 01:08:30;;;;;;;33.85;21.00;;;19.90;95.30;;;;;;5014212;28;20224;-71
2021/07/11 01:11:02;;;;;;;31.58;20.98;;;19.80;95.50;;;;;;5011945;28;20200;-74
2021/07/11 01:13:30;;;;;;;32.05;21.85;;;19.90;95.60;;;;;;5000388;28;20203;-72
2021/07/11 01:16:04;;;;;;;32.92;21.35;;;19.90;95.70;;;;;;5011507;28;20207;-70
2021/07/11 01:18:37;;;;;;;34.40;21.98;;;19.80;95.70;;;;;;4995027;28;20270;-70
2021/07/11 01:21:07;;;;;;;;;;;19.80;95.90;;;;;;5002329;28;20200;-69
2021/07/11 01:23:48;;;;;;;33.67;21.73;;;19.80;96.00;;;;;;4995355;28;20486;-71
2021/07/11 01:26:17;;;;;;;31.77;20.92;;;19.80;96.00;;;;;;4999762;28;20258;-71
2021/07/11 01:28:48;;;;;;;31.80;21.27;;;19.80;96.10;;;;;;5014266;28;20654;-71
2021/07/11 01:31:19;;;;;;;32.92;20.92;;;19.70;96.20;;;;;;4996585;28;20200;-68
2021/07/11 01:33:47;;;;;;;34.38;21.85;;;19.70;96.30;;;;;;5003756;28;20554;-72
2021/07/11 01:36:17;;;;;;;29.40;20.50;;;19.70;96.40;;;;;;5013321;28;20196;-71
2021/07/11 01:38:48;;;;;;;33.45;21.23;;;19.70;96.50;;;;;;5003769;28;20681;-71
2021/07/11 01:41:17;;;;;;;;;;;19.60;96.60;;;;;;5001583;28;20202;-71
2021/07/11 01:43:45;;;;;;;;;;;19.60;96.70;;;;;;5015008;28;20056;-71
2021/07/11 01:46:12;;;;;;;30.25;20.65;;;19.60;96.80;;;;;;5011848;28;20427;-72
2021/07/11 01:48:43;;;;;;;31.45;20.58;;;19.60;97.00;;;;;;5003317;28;20208;-71
2021/07/11 01:51:10;;;;;;;31.75;19.52;;;19.60;97.10;;;;;;5010686;28;20208;-69
2021/07/11 01:53:40;;;;;;;30.73;19.35;;;19.60;97.10;;;;;;4991503;28;20291;-71
2021/07/11 01:56:09;;;;;;;30.30;19.88;;;19.60;97.30;;;;;;4994414;28;20299;-71
2021/07/11 01:58:38;;;;;;;29.10;19.25;;;19.60;97.40;;;;;;5014065;28;20255;-69
2021/07/11 02:01:08;;;;;;;30.90;19.83;;;19.50;97.50;;;;;;4990861;28;20229;-72
2021/07/11 02:03:35;;;;;;;26.52;19.17;;;19.60;97.60;;;;;;5010125;28;20240;-71
2021/07/11 02:06:06;;;;;;;29.63;19.15;;;19.50;97.70;;;;;;4996974;28;20214;-72
2021/07/11 02:08:37;;;;;;;28.05;18.83;;;19.50;97.80;;;;;;5006296;28;20211;-69
2021/07/11 02:11:06;;;;;;;28.58;18.48;;;19.50;97.90;;;;;;4993751;28;20207;-73
2021/07/11 02:13:51;;;;;;;29.83;18.40;;;19.50;98.00;;;;;;5001902;28;20205;-72
2021/07/11 02:16:24;;;;;;;26.25;18.33;;;19.60;98.10;;;;;;4993159;28;20255;-70
2021/07/11 02:18:57;;;;;;;30.20;18.70;;;19.60;98.10;;;;;;4995267;28;20200;-72
2021/07/11 02:21:28;;;;;;;28.33;19.13;;;19.50;98.50;;;;;;5000964;28;20201;-71
2021/07/11 02:24:01;;;;;;;26.70;19.02;;;19.50;98.20;;;;;;5000687;28;20312;-71
2021/07/11 02:26:29;;;;;;;26.02;17.85;;;19.50;98.30;;;;;;5007287;28;20205;-70
2021/07/11 02:28:59;;;;;;;26.75;18.15;;;19.60;98.40;;;;;;4980397;28;20252;-72
2021/07/11 02:31:27;;;;;;;24.83;17.52;;;19.50;98.40;;;;;;4970554;28;20601;-71
2021/07/11 02:33:54;;;;;;;25.02;16.92;;;19.60;98.50;;;;;;4973072;28;20553;-69
2021/07/11 02:36:26;;;;;;;27.00;17.42;;;19.50;98.50;;;;;;4970199;28;20237;-70
2021/07/11 02:38:57;;;;;;;22.92;16.70;;;19.50;98.60;;;;;;4973382;28;20674;-72
2021/07/11 02:41:28;;;;;;;25.20;17.27;;;19.50;98.60;;;;;;4971938;28;20201;-70
2021/07/11 02:44:01;;;;;;;25.83;17.13;;;19.50;98.70;;;;;;4973168;28;20217;-69
2021/07/11 02:46:35;;;;;;;23.25;17.10;;;19.50;98.70;;;;;;4971833;28;20213;-70
2021/07/11 02:49:06;;;;;;;24.33;16.80;;;19.50;98.80;;;;;;4971597;28;20213;-71
2021/07/11 02:51:41;;;;;;;23.80;16.40;;;19.50;98.80;;;;;;4971760;28;20270;-71
2021/07/11 02:54:10;;;;;;;28.38;16.90;;;19.50;98.90;;;;;;4969954;28;20209;-73
2021/07/11 02:56:39;;;;;;;26.33;16.88;;;19.50;98.90;;;;;;4972018;28;20253;-69
2021/07/11 02:59:12;;;;;;;26.13;17.05;;;19.40;99.00;;;;;;4970015;28;20257;-71
2021/07/11 03:01:44;;;;;;;21.77;15.57;;;19.40;99.00;;;;;;4972665;28;20210;-71
2021/07/11 03:04:14;;;;;;;24.38;16.58;;;19.50;99.10;;;;;;4970083;28;20741;-72
2021/07/11 03:06:43;;;;;;;27.75;16.52;;;19.50;99.20;;;;;;4969128;28;20229;-71
2021/07/11 03:09:10;;;;;;;27.52;16.25;;;19.50;99.30;;;;;;4967287;28;20201;-70
2021/07/11 03:11:41;;;;;;;23.13;16.45;;;19.50;99.30;;;;;;4985688;28;20296;-72
2021/07/11 03:14:12;;;;;;;23.98;16.48;;;19.50;99.40;;;;;;4970681;28;20225;-72
2021/07/11 03:16:53;;;;;;;23.33;16.55;;;19.40;99.40;;;;;;4988990;28;20201;-71
2021/07/11 03:19:23;;;;;;;21.67;15.80;;;19.50;99.50;;;;;;4970458;28;20205;-69
2021/07/11 03:21:51;;;;;;;25.00;15.77;;;19.50;99.50;;;;;;4972913;28;20256;-71
2021/07/11 03:24:22;;;;;;;22.40;16.00;;;19.40;99.50;;;;;;4971054;28;20228;-71
2021/07/11 03:26:50;;;;;;;23.35;16.30;;;19.50;99.60;;;;;;4971142;28;20210;-71
2021/07/11 03:29:26;;;;;;;21.60;15.27;;;19.40;99.60;;;;;;5000874;28;20646;-70
2021/07/11 03:31:55;;;;;;;22.50;15.02;;;19.40;99.60;;;;;;5010717;28;20224;-72
2021/07/11 03:34:26;;;;;;;24.10;15.35;;;19.50;99.70;;;;;;5009816;28;20259;-69
2021/07/11 03:36:56;;;;;;;23.95;15.30;;;19.50;99.70;;;;;;4993951;28;20244;-71
2021/07/11 03:39:25;;;;;;;19.48;14.30;;;19.50;99.70;;;;;;5007607;28;20201;-70
2021/07/11 03:41:54;;;;;;;19.75;14.95;;;19.50;99.70;;;;;;4999745;28;20220;-71
2021/07/11 03:44:28;;;;;;;20.98;14.60;;;19.50;99.70;;;;;;5009229;28;20225;-72
2021/07/11 03:46:56;;;;;;;19.40;14.63;;;19.50;99.60;;;;;;4993911;28;20281;-70
2021/07/11 03:49:23;;;;;;;22.20;14.10;;;19.50;99.70;;;;;;5008131;28;20724;-72
2021/07/11 03:51:53;;;;;;;22.45;14.10;;;19.50;99.70;;;;;;5001744;28;20227;-71
2021/07/11 03:54:20;;;;;;;23.08;14.57;;;19.50;99.60;;;;;;5005588;28;20255;-71
2021/07/11 03:56:50;;;;;;;18.27;14.07;;;19.50;99.60;;;;;;5010444;28;20665;-71
2021/07/11 03:59:17;;;;;;;19.23;14.10;;;19.40;99.60;;;;;;5007316;28;21919;-73
2021/07/11 04:01:47;;;;;;;19.63;14.88;;;19.40;99.60;;;;;;5011446;28;20259;-72
2021/07/11 04:04:16;;;;;;;22.25;14.35;;;19.40;99.70;;;;;;5009505;28;20295;-70
2021/07/11 04:06:47;;;;;;;21.92;14.48;;;19.40;99.70;;;;;;5010490;28;20203;-72
2021/07/11 04:09:17;;;;;;;22.02;14.55;;;19.30;99.70;;;;;;5010472;28;20660;-69
2021/07/11 04:11:44;;;;;;;21.17;14.43;;;19.30;99.80;;;;;;5011585;28;20203;-71
2021/07/11 04:14:14;;;;;;;18.70;13.65;;;19.30;99.90;;;;;;5007313;28;20220;-70
2021/07/11 04:16:42;;;;;;;21.38;14.40;;;19.30;99.90;;;;;;4996253;28;20209;-72
2021/07/11 04:19:11;;;;;;;19.70;14.52;;;19.20;99.90;;;;;;5005412;28;20620;-71
2021/07/11 04:21:40;;;;;;;21.33;14.82;;;19.20;99.90;;;;;;5010843;28;20699;-72
2021/07/11 04:24:07;;;;;;;22.17;14.75;;;19.20;99.90;;;;;;5010370;28;20574;-71
2021/07/11 04:26:37;;;;;;;19.23;13.43;;;19.20;99.90;;;;;;5007103;28;20193;-71
2021/07/11 04:29:05;;;;;;;18.90;14.60;;;19.20;99.90;;;;;;5008773;28;20279;-70
2021/07/11 04:31:32;;;;;;;21.27;14.77;;;19.20;99.90;;;;;;5007683;28;20267;-71
2021/07/11 04:34:10;;;;;;;23.08;14.35;;;19.20;99.90;;;;;;4993856;28;21020;-71
2021/07/11 04:36:39;;;;;;;18.98;13.55;;;19.20;99.90;;;;;;4998481;28;20258;-70
2021/07/11 04:39:05;;;;;;;22.10;14.23;;;19.20;99.90;;;;;;5011285;28;20614;-71
2021/07/11 04:41:33;;;;;;;23.48;14.80;;;19.10;99.90;;;;;;5007561;28;20637;-73
2021/07/11 04:44:04;;;;;;;23.73;14.48;;;19.10;99.90;;;;;;5013376;28;20291;-70
2021/07/11 04:46:31;;;;;;;22.05;14.45;;;19.10;99.90;;;;;;5013716;28;20208;-70
2021/07/11 04:49:03;;;;;;;20.63;14.60;;;19.10;99.90;;;;;;5015767;28;20262;-72
2021/07/11 04:51:31;;;;;;;25.02;14.68;;;19.10;99.90;;;;;;5013569;28;20255;-71
2021/07/11 04:54:00;;;;;;;20.85;14.60;;;19.10;99.90;;;;;;5012392;28;20266;-70
2021/07/11 04:56:27;;;;;;;25.35;15.13;;;19.10;99.90;;;;;;5013722;28;20201;-72
2021/07/11 04:58:53;;;;;;;24.02;15.40;;;19.10;99.90;;;;;;5015730;28;20279;-72
2021/07/11 05:01:20;;;;;;;21.65;14.88;;;19.10;99.90;;;;;;5013135;28;20208;-70
2021/07/11 05:03:47;;;;;;;21.80;15.45;;;19.10;99.90;;;;;;5012904;28;20298;-73
2021/07/11 05:06:14;;;;;;;20.80;15.65;;;19.10;99.90;;;;;;5011611;28;20559;-70
2021/07/11 05:08:40;;;;;;;24.40;16.00;;;19.10;99.90;;;;;;5016031;28;20222;-71
2021/07/11 05:11:09;;;;;;;21.00;15.43;;;19.10;99.90;;;;;;5013762;28;20554;-71
2021/07/11 05:13:35;;;;;;;21.33;15.50;;;19.10;99.90;;;;;;5013616;28;20250;-71
2021/07/11 05:16:02;;;;;;;21.90;15.68;;;19.10;99.90;;;;;;5007711;28;20201;-72
2021/07/11 05:18:29;;;;;;;22.85;15.98;;;19.10;99.90;;;;;;5013435;28;20727;-71
2021/07/11 05:20:56;;;;;;;23.38;15.75;;;19.10;99.90;;;;;;5002228;28;20197;-73
2021/07/11 05:23:23;;;;;;;25.17;16.27;;;19.10;99.90;;;;;;5002745;28;20224;-70
2021/07/11 05:25:51;;;;;;;30.27;17.95;;;19.10;99.90;;;;;;5010349;28;20294;-72
2021/07/11 05:28:19;;;;;;;26.33;18.55;;;19.10;99.90;;;;;;5011920;28;20232;-71
2021/07/11 05:30:46;;;;;;;27.50;17.42;;;19.20;99.90;;;;;;5011148;28;20291;-70
2021/07/11 05:33:13;;;;;;;25.25;16.98;;;19.20;99.90;;;;;;5014005;28;20197;-72
2021/07/11 05:35:39;;;;;;;25.58;17.42;;;19.20;99.90;;;;;;5013413;28;20262;-71
2021/07/11 05:38:06;;;;;;;24.70;17.27;;;19.30;99.90;;;;;;5013849;28;20251;-70
2021/07/11 05:40:33;;;;;;;29.88;19.73;;;19.20;99.90;;;;;;4999271;28;20232;-69
2021/07/11 05:43:00;;;;;;;32.15;19.90;;;19.20;99.90;;;;;;5014056;28;20232;-71
2021/07/11 05:45:28;;;;;;;38.90;24.25;;;19.30;99.90;;;;;;5013081;28;20208;-73
2021/07/11 05:47:55;;;;;;;33.30;20.27;;;19.30;99.90;;;;;;5009466;28;20196;-68
2021/07/11 05:50:22;;;;;;;28.00;19.63;;;19.30;99.90;;;;;;5012715;28;20196;-69
2021/07/11 05:52:49;;;;;;;31.25;20.40;;;19.40;99.90;;;;;;5012742;28;20204;-71
2021/07/11 05:55:15;;;;;;;25.58;19.05;;;19.40;99.90;;;;;;5010942;28;20208;-68
2021/07/11 05:57:42;;;;;;;26.92;19.42;;;19.50;99.90;;;;;;5012151;28;20260;-70
2021/07/11 06:00:11;;;;;;;28.55;19.40;;;19.50;99.90;;;;;;5014493;28;20219;-71
2021/07/11 06:02:43;;;;;;;31.55;19.42;;;19.60;99.90;;;;;;5013919;28;20204;-70
2021/07/11 06:05:11;;;;;;;32.45;19.80;;;19.60;99.90;;;;;;5010947;28;20282;-71
2021/07/11 06:07:38;;;;;;;30.17;19.70;;;19.70;99.90;;;;;;4999440;28;20286;-71
2021/07/11 06:10:06;;;;;;;29.80;21.02;;;19.70;99.90;;;;;;5012411;28;20270;-69
2021/07/11 06:12:33;;;;;;;28.02;19.52;;;19.70;99.90;;;;;;5011530;28;20215;-70
2021/07/11 06:15:00;;;;;;;30.48;20.92;;;19.80;99.90;;;;;;5009189;28;20200;-70
2021/07/11 06:17:27;;;;;;;28.48;19.58;;;19.80;99.90;;;;;;5014317;28;20201;-69
2021/07/11 06:19:55;;;;;;;31.95;19.40;;;19.80;99.90;;;;;;5010519;28;20204;-69
2021/07/11 06:22:22;;;;;;;26.55;19.38;;;19.80;99.90;;;;;;5016880;28;21036;-71
2021/07/11 06:24:48;;;;;;;27.42;19.05;;;19.90;99.90;;;;;;5000831;28;20232;-71
2021/07/11 06:27:15;;;;;;;28.98;21.20;;;19.90;99.90;;;;;;5009669;28;20204;-69
2021/07/11 06:29:45;;;;;;;30.30;22.27;;;19.90;99.90;;;;;;5010548;28;20310;-70
2021/07/11 06:32:12;;;;;;;28.25;20.20;;;19.90;99.90;;;;;;5013012;28;20204;-71
2021/07/11 06:34:40;;;;;;;27.88;20.27;;;19.90;99.90;;;;;;5006231;28;20196;-72
2021/07/11 06:37:09;;;;;;;27.50;20.60;;;19.90;99.90;;;;;;5010949;28;20236;-71
2021/07/11 06:39:36;;;;;;;29.15;20.88;;;19.90;99.90;;;;;;5012083;28;20220;-69
2021/07/11 06:42:03;;;;;;;31.00;20.67;;;19.90;99.90;;;;;;5016121;28;20724;-70
2021/07/11 06:44:30;;;;;;;29.52;20.05;;;19.90;99.90;;;;;;5010734;28;20243;-72
2021/07/11 06:46:56;;;;;;;31.40;21.20;;;19.90;99.90;;;;;;5013919;28;20657;-69
2021/07/11 06:49:23;;;;;;;28.63;20.67;;;19.90;99.90;;;;;;5012097;28;20224;-73
2021/07/11 06:51:50;;;;;;;33.63;21.95;;;19.90;99.90;;;;;;5013599;28;20197;-71
2021/07/11 06:54:18;;;;;;;31.40;20.65;;;19.90;99.90;;;;;;5006867;28;20205;-70
2021/07/11 06:56:45;;;;;;;28.38;20.48;;;19.90;99.90;;;;;;5016186;28;20228;-71
2021/07/11 06:59:12;;;;;;;29.85;21.00;;;20.00;99.90;;;;;;5011900;28;20262;-71
2021/07/11 07:01:38;;;;;;;29.27;20.42;;;20.00;99.90;;;;;;5012566;28;20284;-71
2021/07/11 07:04:05;;;;;;;28.40;19.98;;;20.00;99.90;;;;;;4991301;28;20220;-72
2021/07/11 07:06:33;;;;;;;28.02;20.52;;;20.00;99.90;;;;;;5010160;28;20215;-71
2021/07/11 07:08:59;;;;;;;30.42;20.13;;;20.10;99.90;;;;;;5010786;28;20299;-70
2021/07/11 07:11:28;;;;;;;28.35;20.10;;;20.10;99.90;;;;;;5011023;28;20205;-69
2021/07/11 07:13:54;;;;;;;27.45;19.02;;;20.10;99.90;;;;;;5012459;28;20205;-71
2021/07/11 07:16:21;;;;;;;29.30;20.17;;;20.10;99.90;;;;;;5010041;28;20204;-70
2021/07/11 07:18:48;;;;;;;26.42;19.23;;;20.10;99.90;;;;;;5006053;28;20204;-71
2021/07/11 07:21:17;;;;;;;24.92;18.00;;;20.10;99.90;;;;;;5009948;28;20571;-70
2021/07/11 07:23:44;;;;;;;25.33;17.45;;;20.10;99.90;;;;;;5013088;28;20232;-72
2021/07/11 07:26:11;;;;;;;25.73;17.90;;;20.20;99.90;;;;;;5010162;28;20261;-70
2021/07/11 07:28:40;;;;;;;25.67;17.90;;;20.20;99.90;;;;;;5009393;28;20258;-68
2021/07/11 07:31:08;;;;;;;24.30;18.45;;;20.20;99.90;;;;;;5000679;28;20204;-71
2021/07/11 07:33:34;;;;;;;26.33;17.42;;;20.10;99.90;;;;;;4996615;28;20286;-70
2021/07/11 07:36:01;;;;;;;24.75;17.65;;;20.20;99.90;;;;;;5009972;28;20266;-73
2021/07/11 07:38:28;;;;;;;25.35;17.98;;;20.20;99.90;;;;;;5013027;28;20204;-70
2021/07/11 07:40:55;;;;;;;26.13;18.52;;;20.20;99.90;;;;;;5008612;28;20707;-72
2021/07/11 07:43:22;;;;;;;27.10;17.92;;;20.20;99.90;;;;;;5010865;28;20286;-72
2021/07/11 07:45:50;;;;;;;25.33;18.55;;;20.20;99.90;;;;;;5007651;28;20649;-71
2021/07/11 07:48:17;;;;;;;26.65;19.13;;;20.20;99.90;;;;;;5014139;28;20634;-72
2021/07/11 07:50:43;;;;;;;24.52;18.48;;;20.20;99.90;;;;;;5007766;28;20201;-70
2021/07/11 07:53:11;;;;;;;26.25;18.40;;;20.20;99.90;;;;;;5010298;28;20271;-71
2021/07/11 07:55:37;;;;;;;26.40;18.48;;;20.20;99.90;;;;;;5007986;28;20284;-70
2021/07/11 07:58:07;;;;;;;24.45;18.73;;;20.20;99.90;;;;;;5008890;28;20684;-70
2021/07/11 08:00:34;;;;;;;25.58;18.63;;;20.20;99.90;;;;;;5008273;28;21663;-70
2021/07/11 08:03:02;;;;;;;29.17;21.00;;;20.20;99.90;;;;;;5011164;28;20684;-71
2021/07/11 08:05:29;;;;;;;34.97;22.75;;;20.30;99.90;;;;;;5009338;28;20753;-70
2021/07/11 08:07:56;;;;;;;27.70;19.02;;;20.30;99.90;;;;;;5012750;28;20207;-69
2021/07/11 08:10:23;;;;;;;24.67;18.45;;;20.40;99.90;;;;;;4988774;28;20254;-68
2021/07/11 08:12:50;;;;;;;26.33;18.55;;;20.40;99.90;;;;;;5012402;28;20266;-72
2021/07/11 08:15:19;;;;;;;24.30;17.58;;;20.40;99.90;;;;;;5011714;28;20196;-69
2021/07/11 08:17:47;;;;;;;27.73;18.38;;;20.40;99.90;;;;;;5012936;28;20196;-70
2021/07/11 08:20:18;;;;;;;28.50;18.35;;;20.50;99.90;;;;;;5015023;28;20212;-71
2021/07/11 08:22:45;;;;;;;25.88;17.30;;;20.50;99.90;;;;;;5013298;28;20447;-71
2021/07/11 08:25:12;;;;;;;25.98;17.85;;;20.50;99.90;;;;;;5011926;28;20220;-69
2021/07/11 08:27:41;;;;;;;23.50;17.13;;;20.50;99.90;;;;;;5012244;28;20261;-70
2021/07/11 08:30:10;;;;;;;26.35;17.25;;;20.50;99.90;;;;;;5011098;28;20669;-71
2021/07/11 08:32:36;;;;;;;22.75;16.63;;;20.50;99.90;;;;;;5012623;28;20271;-72
2021/07/11 08:35:04;;;;;;;25.80;17.35;;;20.50;99.90;;;;;;5011116;28;20250;-72
2021/07/11 08:37:33;;;;;;;24.67;16.65;;;20.50;99.90;;;;;;4998594;28;20778;-71
2021/07/11 08:40:00;;;;;;;25.05;17.30;;;20.50;99.90;;;;;;5013681;28;20209;-71
2021/07/11 08:42:27;;;;;;;24.77;17.45;;;20.50;99.90;;;;;;4994122;28;20204;-68
2021/07/11 08:44:54;;;;;;;22.35;16.88;;;20.50;99.90;;;;;;4998113;28;20310;-69
2021/07/11 08:47:21;;;;;;;25.15;17.40;;;20.50;99.90;;;;;;5014586;28;20200;-71
2021/07/11 08:49:49;;;;;;;26.17;18.85;;;20.50;99.90;;;;;;5013975;28;20692;-71
2021/07/11 08:52:16;;;;;;;24.30;17.42;;;20.50;99.90;;;;;;5014439;28;20204;-72
2021/07/11 08:54:44;;;;;;;24.83;17.33;;;20.50;99.90;;;;;;5010944;28;20205;-71
2021/07/11 08:57:12;;;;;;;24.77;17.25;;;20.50;99.90;;;;;;5012862;28;20200;-69
2021/07/11 08:59:39;;;;;;;23.73;17.58;;;20.50;99.90;;;;;;5012465;28;20707;-72
2021/07/11 09:02:07;;;;;;;27.00;17.70;;;20.50;99.90;;;;;;5010070;28;20201;-72
2021/07/11 09:04:41;;;;;;;24.83;17.70;;;20.40;99.90;;;;;;5012276;28;20274;-70
2021/07/11 09:07:08;;;;;;;27.30;18.65;;;20.40;99.90;;;;;;5013175;28;20529;-69
2021/07/11 09:09:36;;;;;;;28.08;20.35;;;20.40;99.90;;;;;;4996295;28;20212;-70
2021/07/11 09:12:07;;;;;;;27.75;19.52;;;20.30;99.90;;;;;;5014086;28;20208;-71
2021/07/11 09:14:36;;;;;;;32.00;20.85;;;20.40;99.90;;;;;;5011674;28;20200;-70
2021/07/11 09:17:05;;;;;;;30.55;20.25;;;20.30;99.90;;;;;;5014739;28;20295;-71
2021/07/11 09:19:34;;;;;;;33.17;21.20;;;20.30;99.90;;;;;;4995391;28;20240;-68
2021/07/11 09:22:06;;;;;;;34.53;21.45;;;20.20;99.90;;;;;;5015686;28;20560;-70
2021/07/11 09:24:34;;;;;;;34.28;20.98;;;20.10;99.90;;;;;;5012545;28;20676;-72
2021/07/11 09:27:11;;;;;;;33.35;22.45;;;20.00;99.90;;;;;;5013789;28;20205;-72
2021/07/11 09:29:38;;;;;;;31.95;22.40;;;20.00;99.90;;;;;;5008595;28;20251;-70
2021/07/11 09:32:07;;;;;;;34.47;22.35;;;19.90;99.90;;;;;;5014576;28;20653;-68
2021/07/11 09:34:35;;;;;;;33.20;23.55;;;19.90;99.90;;;;;;5005223;28;20197;-69
2021/07/11 09:37:05;;;;;;;36.83;23.45;;;19.90;99.90;;;;;;4991663;28;20205;-71
2021/07/11 09:39:32;;;;;;;;;;;19.90;99.90;;;;;;5010510;28;20208;-73
2021/07/11 09:42:01;;;;;;;;;;;19.90;99.90;;;;;;5014420;28;19966;-72
2021/07/11 09:44:39;;;;;;;;;;;19.90;99.90;;;;;;5010561;28;19959;-72
2021/07/11 09:47:16;;;;;;;37.50;23.55;;;20.00;99.90;;;;;;5014439;28;20386;-71
2021/07/11 09:49:43;;;;;;;34.30;21.73;;;20.00;99.90;;;;;;5009912;28;20266;-70
2021/07/11 09:52:10;;;;;;;33.90;22.77;;;20.00;99.90;;;;;;5013205;28;20259;-70
2021/07/11 09:54:36;;;;;;;35.75;22.88;;;20.10;99.90;;;;;;5008751;28;20189;-73
2021/07/11 09:57:07;;;;;;;;;;;20.10;99.90;;;;;;5011818;28;20031;-70
2021/07/11 09:59:34;;;;;;;;;;;20.10;99.90;;;;;;5010272;28;19962;-69
2021/07/11 10:02:02;;;;;;;;;;;20.20;99.90;;;;;;5013868;28;20377;-70
2021/07/11 10:04:29;;;;;;;;;;;20.30;99.90;;;;;;5011079;28;21876;-70
2021/07/11 10:06:56;;;;;;;;;;;20.30;99.90;;;;;;4996616;28;19993;-71
2021/07/11 10:09:23;;;;;;;;;;;20.40;99.90;;;;;;5009725;28;19966;-69
2021/07/11 10:11:49;;;;;;;;;;;20.40;99.90;;;;;;5007275;28;20071;-70
2021/07/11 10:14:16;;;;;;;;;;;20.40;99.90;;;;;;5008516;28;19966;-71
2021/07/11 10:16:43;;;;;;;31.70;20.20;;;20.50;99.90;;;;;;5011079;28;20016;-74
2021/07/11 10:19:14;;;;;;;34.20;20.80;;;20.60;99.90;;;;;;5010535;28;20291;-71
2021/07/11 10:21:45;;;;;;;30.98;20.23;;;20.60;99.90;;;;;;5013322;28;20267;-72
2021/07/11 10:24:21;;;;;;;27.60;19.50;;;20.70;99.90;;;;;;5008586;28;20204;-73
2021/07/11 10:26:48;;;;;;;29.65;18.73;;;20.80;99.90;;;;;;5010888;28;20551;-70
2021/07/11 10:29:16;;;;;;;25.65;17.30;;;20.90;99.90;;;;;;5010563;28;20227;-70
2021/07/11 10:31:45;;;;;;;25.85;17.58;;;21.00;99.90;;;;;;5010760;28;20200;-71
2021/07/11 10:34:26;;;;;;;24.55;17.00;;;21.10;99.90;;;;;;5000169;28;20200;-71
2021/07/11 10:36:53;;;;;;;23.70;16.50;;;21.20;99.90;;;;;;5007396;28;20219;-73
2021/07/11 10:39:19;;;;;;;23.08;16.50;;;21.30;99.90;;;;;;5008493;28;20208;-71
2021/07/11 10:41:48;;;;;;;24.92;15.80;;;21.40;99.90;;;;;;5008582;28;20251;-70
2021/07/11 10:44:20;;;;;;;24.52;16.20;;;21.50;99.90;;;;;;4995499;28;20677;-72
2021/07/11 10:46:53;;;;;;;20.73;14.13;;;21.60;99.90;;;;;;5011201;28;20247;-70
2021/07/11 10:49:23;;;;;;;21.08;14.27;;;21.70;99.90;;;;;;5010558;28;20723;-69
2021/07/11 10:51:52;;;;;;;23.20;15.55;;;21.80;99.90;;;;;;5011402;28;20196;-74
2021/07/11 10:54:21;;;;;;;21.08;15.57;;;21.90;99.90;;;;;;5007804;28;20209;-70
2021/07/11 10:56:48;;;;;;;22.77;16.38;;;22.00;99.90;;;;;;5013161;28;20206;-70
2021/07/11 10:59:26;;;;;;;21.63;16.15;;;22.00;99.90;;;;;;4990395;28;20266;-73
2021/07/11 11:01:53;;;;;;;22.15;16.17;;;22.10;99.90;;;;;;5008724;28;20206;-72
2021/07/11 11:04:21;;;;;;;25.65;18.65;;;22.20;99.90;;;;;;5009644;28;20211;-72
2021/07/11 11:06:48;;;;;;;26.83;17.27;;;22.30;99.90;;;;;;5013097;28;20561;-68
2021/07/11 11:09:36;;;;;;;22.33;16.20;;;22.40;99.90;;;;;;5010101;28;20283;-70
2021/07/11 11:12:04;;;;;;;22.45;15.68;;;22.50;99.90;;;;;;5012199;28;20208;-72
2021/07/11 11:14:32;;;;;;;29.02;20.65;;;22.50;99.90;;;;;;5010611;28;20208;-71
2021/07/11 11:16:59;;;;;;;30.58;20.02;;;22.60;99.90;;;;;;5012751;28;20280;-71
2021/07/11 11:19:27;;;;;;;29.15;19.80;;;22.70;99.90;;;;;;5011507;28;20209;-71
2021/07/11 11:21:55;;;;;;;30.58;23.63;;;22.80;99.90;;;;;;5007305;28;20669;-69
2021/07/11 11:24:21;;;;;;;36.25;25.52;;;22.90;99.90;;;;;;4992350;28;20312;-72
2021/07/11 11:26:48;;;;;;;33.03;26.50;;;23.00;99.60;;;;;;5012286;28;20670;-69
2021/07/11 11:29:15;;;;;;;35.88;26.65;;;23.10;99.40;;;;;;5010761;28;20648;-69
2021/07/11 11:31:42;;;;;;;31.48;23.17;;;23.10;99.20;;;;;;5011666;28;20262;-72
2021/07/11 11:34:10;;;;;;;26.23;19.25;;;23.20;98.90;;;;;;5004432;28;20204;-70
2021/07/11 11:36:40;;;;;;;26.33;19.20;;;23.20;98.40;;;;;;5013220;28;20719;-71
2021/07/11 11:39:08;;;;;;;23.42;19.00;;;23.30;97.80;;;;;;5008195;28;20641;-71
2021/07/11 11:41:37;;;;;;;21.08;17.80;;;23.40;97.30;;;;;;4985914;28;20657;-70
2021/07/11 11:44:12;;;;;;;25.85;18.73;;;23.40;97.20;;;;;;5006249;28;20204;-68
2021/07/11 11:46:40;;;;;;;22.02;17.30;;;23.50;97.00;;;;;;5010884;28;20266;-71
2021/07/11 11:49:09;;;;;;;21.88;17.52;;;23.60;96.80;;;;;;5010106;28;20212;-72
2021/07/11 11:51:43;;;;;;;21.83;15.85;;;23.60;96.60;;;;;;5010989;28;20208;-71
2021/07/11 11:54:10;;;;;;;22.98;15.88;;;23.70;96.50;;;;;;5011157;28;20326;-70
2021/07/11 11:56:37;;;;;;;22.27;16.17;;;23.80;96.20;;;;;;5014856;28;20220;-69
2021/07/11 11:59:05;;;;;;;23.45;16.23;;;23.90;96.00;;;;;;5015801;28;21525;-72
2021/07/11 12:01:34;;;;;;;20.55;15.98;;;24.10;96.00;;;;;;5015242;28;20209;-72
2021/07/11 12:04:09;;;;;;;21.08;17.10;;;24.20;95.80;;;;;;5014402;28;20267;-74
2021/07/11 12:06:36;;;;;;;20.92;16.98;;;24.30;95.30;;;;;;5013179;28;20255;-71
2021/07/11 12:09:05;;;;;;;22.65;17.35;;;24.50;95.00;;;;;;5010543;28;20200;-72
2021/07/11 12:11:32;;;;;;;22.88;17.38;;;24.50;94.50;;;;;;5014012;28;20265;-71
2021/07/11 12:14:12;;;;;;;20.48;17.10;;;24.70;94.10;;;;;;5014803;28;20204;-70
2021/07/11 12:16:42;;;;;;;24.73;18.70;;;24.80;93.70;;;;;;5014905;28;20320;-71
2021/07/11 12:19:10;;;;;;;22.52;18.20;;;25.00;93.40;;;;;;5015404;28;20208;-71
2021/07/11 12:21:43;;;;;;;24.13;17.75;;;25.10;92.90;;;;;;5015775;28;20679;-72
2021/07/11 12:24:13;;;;;;;18.95;16.90;;;25.30;92.60;;;;;;5004910;28;20204;-71
2021/07/11 12:26:42;;;;;;;23.30;17.83;;;25.50;92.40;;;;;;5012715;28;20220;-71
2021/07/11 12:29:10;;;;;;;21.30;17.80;;;25.70;92.00;;;;;;5011628;28;20278;-70
2021/07/11 12:31:37;;;;;;;22.20;18.42;;;25.80;91.70;;;;;;4992956;28;20203;-71
2021/07/11 12:34:07;;;;;;;23.33;18.83;;;25.90;91.10;;;;;;5014173;28;20732;-72
2021/07/11 12:36:36;;;;;;;19.88;16.48;;;25.90;90.60;;;;;;5015344;28;20287;-71
2021/07/11 12:39:17;;;;;;;20.67;16.80;;;26.00;90.20;;;;;;5013635;28;20204;-72